Time;durP1;ratioP1;P1;durP2;ratioP2;P2;SDS_P1;SDS_P2;PMS_P1;PMS_P2;Temp;Humidity;BMP_temperature;BMP_pressure;BME280_temperature;BME280_humidity;BME280_pressure;Samples;Min_cycle;Max_cycle;Signal;HPM_P1;HPM_P2
2021/07/07 00:00:42;;;;;;;3.57;0.90;;;;;;;18.63;98.03;100457.56;5115326;28;20028;-80
2021/07/07 00:03:12;;;;;;;3.83;0.80;;;;;;;18.62;98.85;100474.41;5112154;29;20278;-81
2021/07/07 00:05:43;;;;;;;5.63;1.07;;;;;;;18.71;98.24;100484.38;5115074;29;20366;-81
2021/07/07 00:08:13;;;;;;;5.32;1.00;;;;;;;18.93;96.08;100472.16;5111308;28;20283;-80
2021/07/07 00:10:44;;;;;;;4.80;1.00;;;;;;;18.79;96.28;100454.59;5115472;29;20053;-80
2021/07/07 00:13:14;;;;;;;3.17;0.90;;;;;;;18.83;95.98;100479.91;5117321;28;20031;-81
2021/07/07 00:15:45;;;;;;;6.95;1.10;;;;;;;18.79;95.80;100481.06;5113498;28;20036;-80
2021/07/07 00:18:15;;;;;;;2.85;0.90;;;;;;;18.92;95.10;100481.06;5117008;29;20027;-81
2021/07/07 00:23:15;;;;;;;4.72;1.00;;;;;;;18.76;97.03;100489.22;5112270;29;20394;-81
2021/07/07 00:25:46;;;;;;;6.20;1.00;;;;;;;18.61;97.80;100472.72;5110769;29;20061;-82
2021/07/07 00:28:17;;;;;;;3.83;0.80;;;;;;;18.60;97.57;100463.94;5108872;29;20404;-80
2021/07/07 00:30:52;;;;;;;7.78;1.10;;;;;;;18.59;96.88;100487.88;5118162;28;20034;-80
2021/07/07 00:33:22;;;;;;;3.00;0.97;;;;;;;18.48;98.86;100482.50;5120334;29;20059;-80
2021/07/07 00:35:53;;;;;;;2.75;0.70;;;;;;;18.57;96.97;100477.41;5119569;28;20722;-80
2021/07/07 00:38:23;;;;;;;4.28;1.00;;;;;;;18.64;97.08;100469.84;5117297;28;20029;-80
2021/07/07 00:40:56;;;;;;;7.85;1.08;;;;;;;18.45;99.23;100482.69;5112062;29;20288;-81
2021/07/07 00:43:26;;;;;;;4.47;0.80;;;;;;;18.50;98.24;100475.28;5119223;28;20501;-80
2021/07/07 00:45:57;;;;;;;6.15;0.80;;;;;;;18.49;98.68;100486.84;5116150;29;20035;-81
2021/07/07 00:48:27;;;;;;;3.88;0.90;;;;;;;18.64;97.73;100483.09;5119627;28;20027;-80
2021/07/07 00:50:59;;;;;;;4.30;1.07;;;;;;;18.56;97.69;100485.44;5116089;29;20095;-81
2021/07/07 00:53:31;;;;;;;5.38;1.02;;;;;;;18.53;97.25;100499.72;5114477;29;20275;-81
2021/07/07 00:56:02;;;;;;;1.92;0.70;;;;;;;18.54;98.18;100497.94;5118624;28;20038;-81
2021/07/07 00:58:34;;;;;;;6.28;1.00;;;;;;;18.52;99.67;100505.16;5116922;29;20031;-82
2021/07/07 01:01:06;;;;;;;5.82;0.93;;;;;;;18.44;99.44;100497.72;5116068;28;20035;-81
2021/07/07 01:03:36;;;;;;;2.55;0.90;;;;;;;18.38;99.16;100494.66;5117373;29;20024;-81
2021/07/07 01:06:06;;;;;;;4.38;1.10;;;;;;;18.38;99.68;100476.13;5118148;28;20023;-80
2021/07/07 01:08:36;;;;;;;5.60;0.85;;;;;;;18.21;100.00;100487.00;5117504;29;20059;-82
2021/07/07 01:11:07;;;;;;;3.05;0.90;;;;;;;18.33;99.15;100491.50;5117976;28;20024;-81
2021/07/07 01:13:41;;;;;;;5.93;0.85;;;;;;;18.40;99.68;100500.69;5117451;29;20028;-81
2021/07/07 01:16:11;;;;;;;4.97;0.70;;;;;;;18.34;99.19;100488.72;5117145;28;20034;-82
2021/07/07 01:18:41;;;;;;;3.33;0.90;;;;;;;18.33;99.75;100486.19;5117956;29;20039;-81
2021/07/07 01:21:12;;;;;;;4.32;0.90;;;;;;;18.35;98.94;100493.06;5117045;28;20034;-80
2021/07/07 01:23:42;;;;;;;4.40;0.93;;;;;;;18.32;98.71;100489.78;5116837;29;20128;-80
2021/07/07 01:26:13;;;;;;;4.22;0.90;;;;;;;18.32;98.26;100481.84;5116280;29;20440;-79
2021/07/07 01:28:43;;;;;;;2.75;0.80;;;;;;;18.28;99.98;100481.22;5117468;29;20046;-79
2021/07/07 01:31:14;;;;;;;3.03;0.88;;;;;;;18.37;98.52;100474.44;5110754;28;20031;-79
2021/07/07 01:33:46;;;;;;;3.75;1.10;;;;;;;18.30;99.71;100467.84;5114292;29;20405;-79
2021/07/07 01:36:16;;;;;;;5.05;1.00;;;;;;;18.28;99.11;100464.47;5118778;29;20074;-79
2021/07/07 01:38:46;;;;;;;3.20;0.70;;;;;;;18.39;99.23;100470.75;5115962;28;20482;-79
2021/07/07 01:41:17;;;;;;;1.48;0.80;;;;;;;18.39;98.71;100480.47;5117849;29;20122;-79
2021/07/07 01:43:47;;;;;;;3.92;0.90;;;;;;;18.20;100.00;100464.13;5114576;28;20565;-79
2021/07/07 01:46:17;;;;;;;2.23;0.80;;;;;;;18.19;100.00;100459.78;5117451;29;20445;-79
2021/07/07 01:48:48;;;;;;;2.35;0.85;;;;;;;18.17;100.00;100451.13;5115209;28;20354;-79
2021/07/07 01:51:19;;;;;;;3.53;0.95;;;;;;;18.17;100.00;100445.81;5114821;29;20524;-79
2021/07/07 01:53:49;;;;;;;3.97;0.90;;;;;;;18.11;100.00;100457.66;5117189;29;20069;-79
2021/07/07 01:56:19;;;;;;;5.40;1.10;;;;;;;18.14;100.00;100456.63;5115328;28;20038;-79
2021/07/07 01:58:50;;;;;;;3.88;0.90;;;;;;;18.21;99.14;100465.81;5118163;28;20038;-79
2021/07/07 02:01:20;;;;;;;5.20;1.08;;;;;;;18.06;100.00;100461.56;5113403;28;20070;-79
2021/07/07 02:03:50;;;;;;;3.95;0.80;;;;;;;18.15;100.00;100447.75;5117684;29;20074;-79
2021/07/07 02:06:20;;;;;;;5.35;0.98;;;;;;;18.11;100.00;100459.44;5114720;28;20485;-79
2021/07/07 02:08:51;;;;;;;7.00;1.00;;;;;;;18.13;100.00;100450.47;5118031;28;20035;-79
2021/07/07 02:11:21;;;;;;;6.28;0.98;;;;;;;17.84;100.00;100448.94;5113903;28;20047;-79
2021/07/07 02:13:52;;;;;;;4.57;1.17;;;;;;;17.72;100.00;100446.28;5118061;28;20118;-79
2021/07/07 02:16:22;;;;;;;5.13;1.27;;;;;;;17.53;100.00;100440.53;5114777;28;20034;-79
2021/07/07 02:18:53;;;;;;;7.43;1.20;;;;;;;17.58;100.00;100441.91;5117931;29;20023;-79
2021/07/07 02:21:23;;;;;;;7.28;0.98;;;;;;;17.72;100.00;100451.56;5114019;28;20027;-79
2021/07/07 02:23:55;;;;;;;5.35;1.00;;;;;;;17.86;100.00;100446.22;5115751;28;20034;-79
2021/07/07 02:26:25;;;;;;;4.25;1.00;;;;;;;17.80;100.00;100442.19;5110218;29;20027;-79
2021/07/07 02:28:56;;;;;;;7.37;1.07;;;;;;;17.60;100.00;100441.81;5118406;28;20027;-79
2021/07/07 02:31:27;;;;;;;3.15;1.08;;;;;;;17.70;100.00;100458.75;5112670;29;20275;-79
2021/07/07 02:33:57;;;;;;;3.33;1.00;;;;;;;17.68;100.00;100471.22;5116622;28;20090;-79
2021/07/07 02:36:27;;;;;;;5.35;0.95;;;;;;;17.73;100.00;100455.91;5114229;29;20028;-79
2021/07/07 02:38:57;;;;;;;7.20;1.10;;;;;;;17.67;100.00;100477.47;5117843;28;20027;-79
2021/07/07 02:41:28;;;;;;;9.43;1.38;;;;;;;17.81;100.00;100472.94;5114377;29;20099;-79
2021/07/07 02:43:58;;;;;;;12.35;1.20;;;;;;;17.43;100.00;100469.34;5117508;28;20306;-79
2021/07/07 02:46:29;;;;;;;13.68;1.60;;;;;;;16.91;100.00;100475.38;5141143;23;20043;-77
2021/07/07 02:48:59;;;;;;;9.13;1.30;;;;;;;16.99;100.00;100486.31;5129345;28;20035;-77
2021/07/07 02:51:29;;;;;;;11.57;1.55;;;;;;;17.03;100.00;100480.75;5125675;28;20432;-77
2021/07/07 02:54:00;;;;;;;13.20;1.40;;;;;;;17.12;100.00;100479.31;5130964;28;20110;-77
2021/07/07 02:56:30;;;;;;;12.88;1.40;;;;;;;17.26;100.00;100482.78;5116894;28;20095;-77
2021/07/07 02:59:00;;;;;;;7.15;1.20;;;;;;;17.06;100.00;100475.28;5113946;28;20549;-77
2021/07/07 03:01:30;;;;;;;9.43;1.20;;;;;;;17.18;100.00;100477.13;5122740;28;20039;-77
2021/07/07 03:04:01;;;;;;;12.05;1.40;;;;;;;17.22;100.00;100494.50;5108694;28;20494;-77
2021/07/07 03:06:31;;;;;;;5.88;1.00;;;;;;;17.21;100.00;100502.50;5114082;28;20051;-76
2021/07/07 03:09:02;;;;;;;6.63;1.17;;;;;;;17.30;100.00;100496.63;5111893;29;20035;-77
2021/07/07 03:11:35;;;;;;;5.25;1.15;;;;;;;17.41;100.00;100486.25;5112374;28;20605;-77
2021/07/07 03:14:05;;;;;;;5.80;1.00;;;;;;;17.35;100.00;100476.91;5112398;29;20031;-77
2021/07/07 03:16:35;;;;;;;5.97;1.40;;;;;;;17.26;100.00;100481.91;5113071;28;20023;-77
2021/07/07 03:19:06;;;;;;;3.67;1.00;;;;;;;17.24;100.00;100502.28;5112838;29;20472;-77
2021/07/07 03:21:36;;;;;;;8.63;1.20;;;;;;;17.22;100.00;100502.41;5115879;28;20139;-77
2021/07/07 03:24:07;;;;;;;5.97;1.20;;;;;;;17.21;100.00;100507.78;5109210;28;20281;-77
2021/07/07 03:26:38;;;;;;;8.60;1.20;;;;;;;17.25;100.00;100507.50;5113053;28;20032;-77
2021/07/07 03:29:08;;;;;;;3.03;1.17;;;;;;;17.30;100.00;100494.00;5111680;29;20142;-77
2021/07/07 03:31:38;;;;;;;4.53;1.02;;;;;;;17.42;100.00;100487.94;5110975;29;20030;-77
2021/07/07 03:34:08;;;;;;;4.78;1.13;;;;;;;17.34;100.00;100492.88;5125827;28;20122;-77
2021/07/07 03:36:39;;;;;;;6.87;1.23;;;;;;;17.12;100.00;100501.28;5114713;28;20038;-77
2021/07/07 03:39:09;;;;;;;9.70;1.33;;;;;;;17.04;100.00;100508.00;5114365;29;20664;-77
2021/07/07 03:41:39;;;;;;;5.25;1.10;;;;;;;17.13;100.00;100520.63;5114973;29;20026;-77
2021/07/07 03:44:09;;;;;;;17.73;1.42;;;;;;;16.87;100.00;100524.03;5111550;29;20024;-77
2021/07/07 03:46:40;;;;;;;9.30;1.30;;;;;;;16.77;100.00;100525.56;5112406;28;20162;-77
2021/07/07 03:49:11;;;;;;;6.35;1.20;;;;;;;16.99;100.00;100524.13;5111027;29;20766;-77
2021/07/07 03:51:41;;;;;;;5.55;1.60;;;;;;;17.05;100.00;100530.81;5111610;29;20035;-77
2021/07/07 03:54:11;;;;;;;8.05;1.30;;;;;;;17.07;100.00;100540.34;5111519;28;20035;-77
2021/07/07 03:56:41;;;;;;;8.35;1.08;;;;;;;17.15;100.00;100537.22;5109858;29;20034;-77
2021/07/07 03:59:12;;;;;;;6.72;1.40;;;;;;;17.22;100.00;100542.03;5100103;29;20482;-77
2021/07/07 04:01:42;;;;;;;7.18;1.27;;;;;;;17.33;100.00;100539.53;5106428;28;20035;-77
2021/07/07 04:04:13;;;;;;;5.90;1.20;;;;;;;17.39;100.00;100544.50;5107196;28;20171;-78
2021/07/07 04:06:45;;;;;;;4.70;1.05;;;;;;;17.44;100.00;100554.75;5109251;29;20853;-77
2021/07/07 04:09:18;;;;;;;6.47;1.30;;;;;;;17.44;100.00;100546.81;5115092;28;20110;-77
2021/07/07 04:11:49;;;;;;;4.93;1.20;;;;;;;17.57;100.00;100540.66;5119332;28;20114;-77
2021/07/07 04:14:23;;;;;;;4.22;1.10;;;;;;;17.64;100.00;100552.53;5109878;29;20122;-78
2021/07/07 04:16:56;;;;;;;11.60;1.30;;;;;;;17.11;100.00;100562.16;5119481;28;20086;-77
2021/07/07 04:19:27;;;;;;;9.63;1.20;;;;;;;16.81;100.00;100559.59;5111702;29;20035;-77
2021/07/07 04:21:58;;;;;;;8.18;1.30;;;;;;;16.90;100.00;100571.38;5116405;28;20023;-77
2021/07/07 04:24:28;;;;;;;6.35;1.10;;;;;;;17.24;100.00;100571.84;5128855;28;20497;-78
2021/07/07 04:26:58;;;;;;;12.55;1.60;;;;;;;17.31;100.00;100580.22;5114905;28;20082;-77
2021/07/07 04:29:30;;;;;;;10.23;1.35;;;;;;;17.13;100.00;100586.66;5117810;28;20027;-77
2021/07/07 04:32:01;;;;;;;8.68;1.55;;;;;;;17.11;100.00;100588.56;5116994;28;20031;-77
2021/07/07 04:34:31;;;;;;;5.10;1.33;;;;;;;17.12;100.00;100588.44;5115059;28;20031;-77
2021/07/07 04:37:02;;;;;;;6.82;1.25;;;;;;;17.14;100.00;100588.38;5111292;29;20481;-77
2021/07/07 04:39:32;;;;;;;8.00;1.27;;;;;;;17.10;100.00;100577.13;5103260;28;20054;-77
2021/07/07 04:42:03;;;;;;;10.40;1.33;;;;;;;17.00;100.00;100581.28;5105466;28;20020;-77
2021/07/07 04:44:33;;;;;;;8.20;1.45;;;;;;;17.03;100.00;100585.53;5116110;29;20094;-77
2021/07/07 04:47:03;;;;;;;5.72;1.30;;;;;;;17.17;100.00;100569.69;5118197;28;20036;-77
2021/07/07 04:49:33;;;;;;;8.82;1.40;;;;;;;17.20;100.00;100588.84;5115935;28;20122;-77
2021/07/07 04:52:05;;;;;;;8.45;1.65;;;;;;;17.04;100.00;100592.50;5113462;29;20024;-77
2021/07/07 04:54:35;;;;;;;7.50;1.48;;;;;;;17.09;100.00;100598.34;5128576;28;20193;-78
2021/07/07 04:57:05;;;;;;;7.78;1.35;;;;;;;17.05;100.00;100594.19;5116185;29;20036;-77
2021/07/07 04:59:36;;;;;;;6.03;1.27;;;;;;;17.20;100.00;100599.41;5118103;29;20038;-77
2021/07/07 05:02:06;;;;;;;6.88;1.30;;;;;;;17.33;100.00;100595.03;5114914;28;20236;-77
2021/07/07 05:04:36;;;;;;;7.07;1.10;;;;;;;17.28;100.00;100593.66;5115439;29;20035;-78
2021/07/07 05:07:07;;;;;;;5.85;1.38;;;;;;;17.42;100.00;100591.84;5112995;28;20024;-78
2021/07/07 05:09:37;;;;;;;4.82;1.10;;;;;;;17.55;100.00;100598.06;5115084;29;20038;-78
2021/07/07 05:12:07;;;;;;;5.72;1.13;;;;;;;17.36;100.00;100597.53;5116846;28;20031;-78
2021/07/07 05:14:38;;;;;;;9.48;1.63;;;;;;;17.11;100.00;100593.84;5132352;28;20027;-78
2021/07/07 05:17:08;;;;;;;2.85;1.10;;;;;;;17.27;100.00;100595.41;5117436;28;20078;-78
2021/07/07 05:19:38;;;;;;;9.35;1.35;;;;;;;17.29;100.00;100597.97;5132517;28;20051;-78
2021/07/07 05:22:09;;;;;;;8.48;1.35;;;;;;;17.34;100.00;100606.50;5115577;28;20564;-78
2021/07/07 05:24:39;;;;;;;4.60;1.17;;;;;;;17.20;100.00;100612.63;5117198;29;20398;-79
2021/07/07 05:27:09;;;;;;;10.52;1.20;;;;;;;17.23;100.00;100608.91;5116828;28;20035;-78
2021/07/07 05:29:40;;;;;;;12.40;1.48;;;;;;;17.30;100.00;100605.78;5118623;29;20027;-78
2021/07/07 05:32:11;;;;;;;8.27;1.48;;;;;;;17.35;100.00;100619.59;5119055;28;20031;-78
2021/07/07 05:34:41;;;;;;;8.57;1.38;;;;;;;17.35;100.00;100613.47;5119173;28;20035;-78
2021/07/07 05:37:11;;;;;;;9.35;1.48;;;;;;;17.43;100.00;100616.47;5118074;28;20362;-78
2021/07/07 05:39:42;;;;;;;8.55;1.48;;;;;;;17.67;100.00;100625.50;5120191;29;20043;-78
2021/07/07 05:42:15;;;;;;;10.00;1.30;;;;;;;17.71;100.00;100616.44;5119557;28;20027;-78
2021/07/07 05:44:47;;;;;;;8.25;1.33;;;;;;;17.68;100.00;100628.03;5118760;28;20492;-78
2021/07/07 05:47:18;;;;;;;5.95;1.50;;;;;;;17.80;100.00;100629.91;5116785;28;20545;-78
2021/07/07 05:49:49;;;;;;;5.68;1.42;;;;;;;17.71;100.00;100633.16;5121146;29;20058;-78
2021/07/07 05:52:20;;;;;;;8.98;1.33;;;;;;;17.58;100.00;100639.28;5117532;29;20035;-78
2021/07/07 05:54:51;;;;;;;5.43;1.10;;;;;;;17.74;100.00;100642.66;5108745;28;20035;-78
2021/07/07 05:57:25;;;;;;;6.80;1.35;;;;;;;17.77;100.00;100647.75;5121121;28;20298;-78
2021/07/07 05:59:55;;;;;;;11.88;1.30;;;;;;;17.64;100.00;100646.84;5110731;29;20030;-78
2021/07/07 06:02:25;;;;;;;10.88;1.23;;;;;;;17.56;100.00;100643.84;5113628;28;20078;-78
2021/07/07 06:04:56;;;;;;;11.13;1.60;;;;;;;17.68;100.00;100637.78;5113374;29;20482;-78
2021/07/07 06:07:26;;;;;;;9.97;1.33;;;;;;;17.67;100.00;100646.66;5118137;28;20289;-78
2021/07/07 06:09:56;;;;;;;7.80;1.13;;;;;;;17.75;100.00;100649.66;5128640;28;20295;-78
2021/07/07 06:12:27;;;;;;;7.05;1.40;;;;;;;17.75;100.00;100634.66;5116058;28;20287;-78
2021/07/07 06:14:57;;;;;;;8.20;1.35;;;;;;;17.88;100.00;100640.00;5114243;28;20028;-79
2021/07/07 06:17:27;;;;;;;7.90;1.40;;;;;;;17.92;100.00;100647.63;5118336;28;20553;-78
2021/07/07 06:19:58;;;;;;;8.73;1.60;;;;;;;17.84;100.00;100659.66;5116073;29;20032;-78
2021/07/07 06:22:28;;;;;;;5.38;1.20;;;;;;;17.94;100.00;100656.31;5114369;28;20275;-78
2021/07/07 06:24:58;;;;;;;9.02;1.35;;;;;;;18.10;100.00;100666.75;5116555;28;20023;-78
2021/07/07 06:27:29;;;;;;;9.50;1.60;;;;;;;18.22;100.00;100676.53;5130526;28;20125;-79
2021/07/07 06:29:59;;;;;;;4.30;1.40;;;;;;;18.34;100.00;100675.78;5115976;28;20477;-78
2021/07/07 06:32:29;;;;;;;7.75;1.58;;;;;;;18.49;100.00;100672.13;5114627;28;20023;-78
2021/07/07 06:35:02;;;;;;;6.88;1.30;;;;;;;18.39;100.00;100676.31;5115444;28;20471;-78
2021/07/07 06:37:33;;;;;;;5.80;1.60;;;;;;;18.46;100.00;100665.22;5112242;29;20042;-78
2021/07/07 06:40:05;;;;;;;5.72;1.50;;;;;;;18.63;100.00;100672.91;5113175;29;20027;-78
2021/07/07 06:42:36;;;;;;;8.82;1.00;;;;;;;18.65;100.00;100678.09;5130348;28;20099;-78
2021/07/07 06:45:08;;;;;;;10.18;1.45;;;;;;;18.69;100.00;100679.59;5115805;28;20114;-79
2021/07/07 06:47:39;;;;;;;6.30;1.20;;;;;;;18.75;100.00;100678.22;5114701;28;20040;-79
2021/07/07 06:50:13;;;;;;;7.82;1.48;;;;;;;18.40;100.00;100683.31;5116086;28;20489;-78
2021/07/07 06:52:44;;;;;;;7.53;1.33;;;;;;;18.56;100.00;100686.66;5115674;29;20792;-78
2021/07/07 06:55:15;;;;;;;4.57;1.10;;;;;;;18.56;100.00;100689.28;5114563;28;20023;-78
2021/07/07 06:57:46;;;;;;;6.45;1.67;;;;;;;18.71;100.00;100694.41;5132265;28;20035;-78
2021/07/07 07:00:19;;;;;;;6.35;1.40;;;;;;;18.82;100.00;100692.75;5114402;28;20107;-79
2021/07/07 07:02:50;;;;;;;5.88;1.30;;;;;;;18.89;100.00;100709.91;5132699;28;20554;-78
2021/07/07 07:05:20;;;;;;;7.28;1.33;;;;;;;18.96;100.00;100713.84;5117673;28;20097;-78
2021/07/07 07:07:50;;;;;;;7.05;1.27;;;;;;;18.93;100.00;100715.88;5115325;29;20028;-78
2021/07/07 07:10:21;;;;;;;6.83;1.67;;;;;;;19.00;100.00;100719.78;5117776;28;20023;-78
2021/07/07 07:12:51;;;;;;;6.03;1.20;;;;;;;19.25;100.00;100715.41;5113716;28;20395;-78
2021/07/07 07:15:21;;;;;;;7.50;1.30;;;;;;;20.02;100.00;100713.44;5117723;29;20023;-79
2021/07/07 07:17:52;;;;;;;6.78;1.30;;;;;;;20.67;95.94;100702.31;5112252;29;20070;-79
2021/07/07 07:20:27;;;;;;;7.38;1.20;;;;;;;20.45;95.32;100695.22;5113930;28;20034;-79
2021/07/07 07:22:58;;;;;;;10.55;1.20;;;;;;;20.37;95.51;100698.44;5129856;28;20019;-78
2021/07/07 07:25:28;;;;;;;9.70;1.20;;;;;;;20.24;96.14;100702.94;5112778;28;20095;-79
2021/07/07 07:27:58;;;;;;;7.30;1.00;;;;;;;20.21;95.11;100708.50;5115625;28;20046;-78
2021/07/07 07:30:30;;;;;;;9.33;1.20;;;;;;;20.11;99.00;100707.44;5112591;28;20154;-79
2021/07/07 07:33:01;;;;;;;8.23;1.10;;;;;;;20.34;96.23;100709.28;5114170;28;20298;-78
2021/07/07 07:35:31;;;;;;;4.72;1.10;;;;;;;20.08;99.52;100712.97;5111713;28;20027;-78
2021/07/07 07:38:09;;;;;;;9.05;1.10;;;;;;;20.08;97.68;100715.63;5115527;29;20035;-78
2021/07/07 07:40:41;;;;;;;4.35;0.95;;;;;;;21.45;90.14;100711.34;5114730;29;20020;-79
2021/07/07 07:43:11;;;;;;;4.90;1.10;;;;;;;22.42;83.95;100716.75;5115708;28;20054;-79
2021/07/07 07:45:42;;;;;;;7.68;1.05;;;;;;;22.67;81.45;100713.78;5109086;29;20032;-79
2021/07/07 07:48:12;;;;;;;5.77;1.00;;;;;;;22.24;86.66;100710.25;5102985;29;20027;-79
2021/07/07 07:50:42;;;;;;;4.70;1.00;;;;;;;22.27;87.69;100717.13;5110616;28;21284;-79
2021/07/07 07:53:12;;;;;;;6.53;1.30;;;;;;;21.99;86.16;100723.00;5113824;28;20294;-79
2021/07/07 07:55:43;;;;;;;6.45;1.20;;;;;;;21.80;84.05;100717.44;5107246;29;20031;-79
2021/07/07 07:58:18;;;;;;;5.20;1.08;;;;;;;21.80;84.58;100706.78;5109000;28;20034;-78
2021/07/07 08:00:49;;;;;;;4.75;1.00;;;;;;;21.19;87.55;100720.50;5113393;29;20398;-78
2021/07/07 08:03:20;;;;;;;7.82;1.10;;;;;;;20.96;89.41;100740.00;5113826;28;20086;-78
2021/07/07 08:05:50;;;;;;;4.68;1.20;;;;;;;21.10;90.91;100742.47;5111940;28;20027;-78
2021/07/07 08:08:20;;;;;;;7.43;1.20;;;;;;;20.99;92.11;100739.78;5106685;28;20027;-78
2021/07/07 08:10:51;;;;;;;6.50;1.20;;;;;;;21.46;90.06;100732.53;5100806;29;20721;-78
2021/07/07 08:13:21;;;;;;;6.72;1.27;;;;;;;21.76;89.06;100734.63;5114554;29;20282;-79
2021/07/07 08:15:51;;;;;;;4.17;1.20;;;;;;;22.80;84.50;100733.94;5106180;28;20023;-79
2021/07/07 08:18:22;;;;;;;5.63;1.00;;;;;;;23.81;78.67;100728.72;5107672;29;20279;-79
2021/07/07 08:20:52;;;;;;;6.95;1.20;;;;;;;24.62;78.90;100731.22;5109745;28;20050;-79
2021/07/07 08:23:23;;;;;;;6.87;1.20;;;;;;;24.86;74.93;100736.03;5102689;29;20039;-79
2021/07/07 08:25:54;;;;;;;5.90;1.25;;;;;;;24.62;77.05;100732.09;5116368;28;20329;-79
2021/07/07 08:28:24;;;;;;;5.32;1.50;;;;;;;24.30;76.34;100735.91;5127891;28;20055;-79
2021/07/07 08:30:56;;;;;;;2.67;0.95;;;;;;;24.56;73.44;100737.97;5112739;28;20030;-79
2021/07/07 08:33:26;;;;;;;4.88;1.00;;;;;;;24.56;74.59;100748.66;5109782;29;20423;-79
2021/07/07 08:35:57;;;;;;;4.78;1.10;;;;;;;24.18;77.27;100755.75;5111698;28;20980;-79
2021/07/07 08:38:27;;;;;;;5.72;1.30;;;;;;;24.24;76.48;100764.03;5106349;29;20016;-79
2021/07/07 08:40:57;;;;;;;5.20;1.10;;;;;;;25.23;75.42;100770.94;5114200;28;20028;-79
2021/07/07 08:43:28;;;;;;;5.30;1.03;;;;;;;24.64;74.79;100770.22;5115886;28;20061;-79
2021/07/07 08:45:59;;;;;;;6.88;1.13;;;;;;;25.13;72.57;100773.59;5135765;23;20978;-80
2021/07/07 08:48:29;;;;;;;4.53;1.00;;;;;;;24.83;72.78;100767.56;5129357;28;20028;-80
2021/07/07 08:51:02;;;;;;;4.53;1.00;;;;;;;23.94;76.67;100766.75;5129278;28;20027;-79
2021/07/07 08:53:32;;;;;;;4.85;1.10;;;;;;;24.67;73.73;100769.94;5127422;28;20712;-79
2021/07/07 08:56:03;;;;;;;4.97;0.98;;;;;;;24.74;77.22;100779.06;5124686;28;20032;-79
2021/07/07 08:58:33;;;;;;;5.85;1.20;;;;;;;25.48;70.93;100781.06;5115216;28;20035;-80
2021/07/07 09:01:03;;;;;;;6.03;1.20;;;;;;;26.08;68.63;100756.50;5117884;28;20106;-79
2021/07/07 09:03:34;;;;;;;6.23;1.20;;;;;;;26.40;68.94;100767.63;5112343;28;20027;-80
2021/07/07 09:06:05;;;;;;;11.10;1.30;;;;;;;27.38;66.08;100764.75;5112630;28;20742;-80
2021/07/07 09:08:39;;;;;;;4.90;1.13;;;;;;;28.77;62.72;100758.75;5113640;28;20106;-80
2021/07/07 09:11:22;;;;;;;5.40;1.08;;;;;;;28.75;60.93;100770.69;5113106;29;20584;-79
2021/07/07 09:14:11;;;;;;;6.38;0.95;;;;;;;28.88;64.05;100771.88;5110804;28;20045;-80
2021/07/07 09:16:58;;;;;;;4.60;1.30;;;;;;;28.21;63.53;100771.16;5113732;28;20050;-80
2021/07/07 09:19:30;;;;;;;6.53;1.10;;;;;;;27.38;64.53;100779.03;5107708;29;20061;-80
2021/07/07 09:22:05;;;;;;;6.20;1.42;;;;;;;27.25;65.32;100788.50;5116019;28;20138;-80
2021/07/07 09:24:37;;;;;;;5.93;1.30;;;;;;;27.46;65.74;100789.81;5112701;28;20062;-80
2021/07/07 09:27:15;;;;;;;7.35;1.10;;;;;;;26.68;65.06;100796.13;5114226;28;20032;-80
2021/07/07 09:29:48;;;;;;;5.43;1.17;;;;;;;26.71;66.18;100790.44;5119104;28;20027;-80
2021/07/07 09:32:21;;;;;;;5.22;1.27;;;;;;;26.59;65.00;100788.97;5113513;28;20513;-80
2021/07/07 09:34:52;;;;;;;4.95;1.00;;;;;;;27.92;62.27;100775.22;5109337;28;20031;-80
2021/07/07 09:37:27;;;;;;;6.10;1.00;;;;;;;28.13;60.87;100783.72;5115625;28;20038;-80
2021/07/07 09:39:57;;;;;;;10.45;1.30;;;;;;;28.32;63.01;100780.81;5113872;28;20035;-80
2021/07/07 09:42:34;;;;;;;4.50;1.00;;;;;;;28.25;62.04;100783.28;5114620;28;20069;-80
2021/07/07 09:45:10;;;;;;;4.38;1.17;;;;;;;27.38;62.57;100797.84;5126470;28;20027;-79
2021/07/07 09:47:40;;;;;;;6.35;1.20;;;;;;;26.97;63.91;100787.69;5113881;28;20027;-79
2021/07/07 09:50:12;;;;;;;3.75;1.20;;;;;;;28.60;64.23;100783.09;5113244;29;20031;-80
2021/07/07 09:52:44;;;;;;;5.47;1.10;;;;;;;27.50;63.42;100785.00;5116946;28;20067;-80
2021/07/07 09:55:14;;;;;;;6.57;1.20;;;;;;;27.55;62.39;100771.94;5111576;28;21037;-80
2021/07/07 09:57:45;;;;;;;5.82;1.25;;;;;;;28.20;62.43;100772.16;5113761;28;20375;-80
2021/07/07 10:00:23;;;;;;;7.18;0.98;;;;;;;28.72;62.67;100770.16;5116240;28;20028;-80
2021/07/07 10:02:54;;;;;;;8.50;1.15;;;;;;;28.17;63.66;100780.53;5112253;28;20031;-80
2021/07/07 10:05:24;;;;;;;5.07;1.10;;;;;;;28.04;60.27;100773.94;5110579;29;20032;-78
2021/07/07 10:07:54;;;;;;;6.80;1.30;;;;;;;27.14;62.61;100778.81;5116037;28;20082;-79
2021/07/07 10:10:27;;;;;;;6.47;1.40;;;;;;;27.29;61.58;100777.28;5112319;29;20282;-79
2021/07/07 10:12:58;;;;;;;6.18;1.23;;;;;;;27.31;61.05;100775.28;5115147;28;20078;-81
2021/07/07 10:15:29;;;;;;;5.05;1.20;;;;;;;26.31;63.16;100776.56;5127642;28;20489;-79
2021/07/07 10:18:02;;;;;;;4.95;1.15;;;;;;;26.33;64.55;100782.63;5114793;28;20027;-79
2021/07/07 10:20:33;;;;;;;7.72;1.58;;;;;;;26.42;65.50;100779.03;5115825;29;20038;-79
2021/07/07 10:23:08;;;;;;;9.00;1.30;;;;;;;26.20;65.86;100782.13;5115901;28;20033;-79
2021/07/07 10:25:39;;;;;;;6.40;1.30;;;;;;;26.03;67.62;100782.91;5111038;28;20031;-79
2021/07/07 10:28:13;;;;;;;5.03;1.20;;;;;;;25.74;66.96;100771.41;5111979;29;20056;-79
2021/07/07 10:30:50;;;;;;;5.95;1.20;;;;;;;26.00;67.48;100776.00;5113045;28;20063;-80
2021/07/07 10:33:27;;;;;;;6.82;1.27;;;;;;;26.57;67.88;100777.56;5116418;28;20023;-80
2021/07/07 10:36:23;;;;;;;5.97;1.30;;;;;;;26.79;68.81;100778.78;5107757;28;20034;-80
2021/07/07 10:38:57;;;;;;;6.00;1.55;;;;;;;25.07;67.70;100776.00;5110353;28;20359;-79
2021/07/07 10:41:50;;;;;;;6.05;1.10;;;;;;;25.15;67.88;100776.97;5111833;29;20024;-78
2021/07/07 10:44:23;;;;;;;6.50;1.42;;;;;;;25.55;70.77;100771.47;5111513;29;20038;-80
2021/07/07 10:46:55;;;;;;;5.22;1.33;;;;;;;25.47;69.55;100784.75;5109241;28;20034;-78
2021/07/07 10:49:27;;;;;;;4.57;1.02;;;;;;;25.27;68.08;100778.56;5113380;28;20119;-78
2021/07/07 10:51:59;;;;;;;5.10;1.30;;;;;;;25.57;67.18;100772.16;5114963;28;20028;-78
2021/07/07 10:54:32;;;;;;;6.78;1.30;;;;;;;25.45;68.63;100778.69;5111550;28;20497;-79
2021/07/07 10:57:05;;;;;;;4.85;1.30;;;;;;;25.46;68.33;100783.06;5113356;28;20389;-80
2021/07/07 10:59:45;;;;;;;4.80;1.35;;;;;;;25.02;67.38;100776.44;5110901;28;20406;-79
2021/07/07 11:02:15;;;;;;;8.63;1.50;;;;;;;25.41;69.45;100782.63;5115300;28;20027;-79
2021/07/07 11:04:58;;;;;;;7.97;1.40;;;;;;;25.53;69.77;100778.78;5112817;28;20034;-79
2021/07/07 11:07:31;;;;;;;5.85;1.25;;;;;;;25.93;69.77;100782.09;5111826;29;20032;-79
2021/07/07 11:10:04;;;;;;;4.57;1.17;;;;;;;25.55;69.38;100776.81;5110199;28;20363;-79
2021/07/07 11:12:34;;;;;;;8.18;1.50;;;;;;;25.25;70.15;100779.66;5109756;29;20027;-81
2021/07/07 11:15:07;;;;;;;4.67;1.27;;;;;;;25.34;70.61;100782.34;5108969;28;20359;-79
2021/07/07 11:17:43;;;;;;;6.63;1.42;;;;;;;25.66;68.39;100773.97;5112254;29;20489;-80
2021/07/07 11:20:16;;;;;;;5.07;1.00;;;;;;;25.24;70.05;100778.00;5109956;29;20041;-79
2021/07/07 11:23:09;;;;;;;7.88;1.33;;;;;;;25.73;67.21;100781.28;5117661;28;20394;-79
2021/07/07 11:25:40;;;;;;;3.88;1.15;;;;;;;25.92;68.82;100780.41;5111246;29;20044;-79
2021/07/07 11:28:11;;;;;;;3.78;1.30;;;;;;;25.64;67.30;100784.00;5103963;28;20135;-79
2021/07/07 11:30:43;;;;;;;6.45;1.13;;;;;;;24.76;69.36;100785.13;5103758;28;20031;-79
2021/07/07 11:33:13;;;;;;;9.40;1.55;;;;;;;24.77;70.83;100789.53;5107317;28;20046;-78
2021/07/07 11:35:46;;;;;;;5.65;1.15;;;;;;;25.29;70.43;100781.09;5108298;28;20027;-79
2021/07/07 11:38:20;;;;;;;6.22;1.30;;;;;;;25.77;68.82;100788.03;5107762;28;20038;-79
2021/07/07 11:40:52;;;;;;;6.25;1.30;;;;;;;25.77;68.29;100784.50;5107246;28;20082;-80
2021/07/07 11:43:27;;;;;;;7.68;1.20;;;;;;;25.67;66.24;100784.53;5109357;28;20513;-79